createdAt,value
2018-09-24T00:01:33.078Z,4.30
2018-09-24T00:06:36.317Z,4.90
2018-09-24T00:11:39.596Z,4.50
2018-09-24T00:16:43.107Z,3.93
2018-09-24T00:21:46.573Z,4.40
2018-09-24T00:26:50.175Z,4.87
2018-09-24T00:31:53.431Z,5.20
2018-09-24T00:36:56.655Z,4.60
2018-09-24T00:41:59.892Z,4.57
2018-09-24T00:47:03.117Z,4.43
2018-09-24T00:52:06.447Z,5.00
2018-09-24T00:57:09.984Z,4.80
2018-09-24T01:02:13.414Z,4.30
2018-09-24T01:07:16.797Z,5.03
2018-09-24T01:12:20.070Z,4.33
2018-09-24T01:17:23.305Z,5.10
2018-09-24T01:22:26.487Z,3.93
2018-09-24T01:27:29.723Z,4.80
2018-09-24T01:32:33.300Z,5.00
2018-09-24T01:37:36.499Z,4.40
2018-09-24T01:42:39.680Z,4.43
2018-09-24T01:47:43.220Z,4.30
2018-09-24T01:53:02.010Z,4.33
2018-09-24T01:58:05.439Z,4.77
2018-09-24T02:03:08.741Z,4.50
2018-09-24T02:08:11.965Z,4.80
2018-09-24T02:13:15.204Z,3.90
2018-09-24T02:18:18.453Z,4.57
2018-09-24T02:23:21.699Z,4.70
2018-09-24T02:28:29.096Z,4.50
2018-09-24T02:33:32.294Z,4.10
2018-09-24T02:38:37.731Z,4.27
2018-09-24T02:43:41.025Z,4.20
2018-09-24T02:48:44.737Z,4.43
2018-09-24T02:53:48.659Z,3.70
2018-09-24T02:58:51.852Z,4.30
2018-09-24T03:03:55.029Z,4.47
2018-09-24T03:08:58.711Z,3.80
2018-09-24T03:14:02.346Z,4.23
2018-09-24T03:19:05.829Z,3.87
2018-09-24T03:24:09.119Z,3.90
2018-09-24T03:29:18.735Z,4.50
2018-09-24T03:34:21.947Z,3.70
2018-09-24T03:39:25.340Z,3.93
2018-09-24T03:44:28.761Z,3.60
2018-09-24T03:49:32.359Z,4.33
2018-09-24T03:54:35.916Z,3.53
2018-09-24T03:59:39.302Z,4.87
2018-09-24T04:04:48.143Z,4.00
2018-09-24T04:09:56.911Z,3.63
2018-09-24T04:15:05.477Z,4.37
2018-09-24T04:20:14.421Z,4.10
2018-09-24T04:25:23.200Z,4.23
2018-09-24T04:30:32.014Z,4.63
2018-09-24T04:35:40.639Z,4.00
2018-09-24T04:40:49.240Z,3.77
2018-09-24T04:45:58.162Z,3.90
2018-09-24T04:51:06.897Z,4.43
2018-09-24T04:56:15.753Z,4.00
2018-09-24T05:01:24.762Z,4.40
2018-09-24T05:06:33.427Z,4.57
2018-09-24T05:11:42.129Z,4.30
2018-09-24T05:16:50.786Z,5.00
2018-09-24T05:21:59.693Z,4.80
2018-09-24T05:27:08.563Z,5.20
2018-09-24T05:32:17.177Z,4.90
2018-09-24T05:37:26.218Z,3.60
2018-09-24T05:42:35.089Z,3.90
2018-09-24T05:47:43.633Z,4.57
2018-09-24T05:52:53.050Z,4.50
2018-09-24T05:58:01.651Z,4.27
2018-09-24T06:03:10.219Z,4.40
2018-09-24T06:08:18.826Z,4.70
2018-09-24T06:13:27.838Z,4.80
2018-09-24T06:18:36.780Z,5.30
2018-09-24T06:23:45.499Z,4.90
2018-09-24T06:28:54.089Z,4.80
2018-09-24T06:34:02.769Z,4.50
2018-09-24T06:39:13.315Z,4.70
2018-09-24T06:44:22.205Z,4.57
2018-09-24T06:49:31.636Z,5.40
2018-09-24T06:54:40.465Z,4.40
2018-09-24T06:59:49.046Z,4.97
2018-09-24T07:04:57.786Z,4.63
2018-09-24T07:10:06.372Z,4.57
2018-09-24T07:15:15.331Z,5.17
2018-09-24T07:20:23.917Z,4.60
2018-09-24T07:25:32.574Z,3.90
2018-09-24T07:30:41.128Z,3.87
2018-09-24T07:35:50.037Z,4.23
2018-09-24T07:40:58.829Z,3.97
2018-09-24T07:46:07.442Z,4.13
2018-09-24T07:51:16.999Z,3.73
2018-09-24T07:56:25.879Z,3.83
2018-09-24T08:01:34.474Z,3.10
2018-09-24T08:06:43.120Z,3.10
2018-09-24T08:11:52.067Z,2.63
2018-09-24T08:17:01.473Z,3.00
2018-09-24T08:22:10.047Z,2.70
2018-09-24T08:27:29.455Z,3.17
2018-09-24T08:32:38.395Z,3.37
2018-09-24T08:37:47.126Z,2.80
2018-09-24T08:42:56.067Z,3.00
2018-09-24T08:48:04.997Z,2.10
2018-09-24T08:53:13.868Z,2.90
2018-09-24T08:58:22.984Z,2.20
2018-09-24T09:03:31.815Z,2.50
2018-09-24T09:08:40.489Z,2.43
2018-09-24T09:13:49.084Z,2.10
2018-09-24T09:18:57.996Z,2.43
2018-09-24T09:24:06.730Z,2.20
2018-09-24T09:29:15.704Z,2.17
2018-09-24T09:34:24.519Z,2.07
2018-09-24T09:39:33.111Z,2.50
2018-09-24T09:44:41.765Z,2.17
2018-09-24T09:49:53.146Z,1.73
2018-09-24T09:55:01.795Z,1.87
2018-09-24T10:00:10.569Z,1.97
2018-09-24T10:05:19.162Z,2.30
2018-09-24T10:10:27.833Z,2.00
2018-09-24T10:15:36.490Z,2.30
2018-09-24T10:20:45.070Z,1.80
2018-09-24T10:25:53.775Z,1.73
2018-09-24T10:31:02.940Z,2.03
2018-09-24T10:36:11.746Z,1.90
2018-09-24T10:41:21.300Z,1.63
2018-09-24T10:46:30.148Z,1.90
2018-09-24T10:51:38.789Z,1.93
2018-09-24T10:56:47.358Z,2.40
2018-09-24T11:01:55.924Z,1.70
2018-09-24T11:07:04.763Z,1.60
2018-09-24T11:12:13.403Z,2.30
2018-09-24T11:17:22.269Z,1.67
2018-09-24T11:22:31.118Z,2.07
2018-09-24T11:27:40.509Z,1.80
2018-09-24T11:32:49.148Z,1.57
2018-09-24T11:37:57.811Z,2.03
2018-09-24T11:43:06.685Z,1.60
2018-09-24T11:48:17.364Z,1.90
2018-09-24T11:53:26.169Z,1.90
2018-09-24T11:58:35.603Z,1.53
2018-09-24T12:03:44.266Z,1.90
2018-09-24T12:08:53.631Z,1.57
2018-09-24T12:14:02.468Z,1.60
2018-09-24T12:19:11.838Z,1.57
2018-09-24T12:24:21.409Z,1.40
2018-09-24T12:29:30.037Z,1.50
2018-09-24T12:34:38.731Z,1.73
2018-09-24T12:39:47.357Z,1.30
2018-09-24T12:44:56.231Z,1.60
2018-09-24T12:50:05.110Z,1.90
2018-09-24T12:55:13.745Z,1.77
2018-09-24T13:00:22.309Z,1.60
2018-09-24T13:05:30.923Z,1.40
2018-09-24T13:10:39.649Z,1.53
2018-09-24T13:15:48.771Z,1.70
2018-09-24T13:20:57.434Z,1.63
2018-09-24T13:26:06.195Z,1.93
2018-09-24T13:31:15.320Z,1.73
2018-09-24T13:36:23.857Z,1.80
2018-09-24T13:41:32.748Z,2.00
2018-09-24T13:46:41.418Z,1.60
2018-09-24T13:51:49.998Z,1.50
2018-09-24T13:56:58.665Z,2.23
2018-09-24T14:02:07.325Z,1.60
2018-09-24T14:07:15.985Z,1.60
2018-09-24T14:12:24.806Z,1.90
2018-09-24T14:17:33.450Z,2.00
2018-09-24T14:22:42.008Z,1.70
2018-09-24T14:27:50.730Z,1.43
2018-09-24T14:32:59.368Z,1.77
2018-09-24T14:38:08.217Z,1.57
2018-09-24T14:43:17.022Z,1.40
2018-09-24T14:48:25.995Z,1.30
2018-09-24T14:53:35.289Z,1.63
2018-09-24T14:58:44.011Z,1.40
2018-09-24T15:03:52.653Z,1.47
2018-09-24T15:09:01.434Z,1.80
2018-09-24T15:14:10.172Z,1.70
2018-09-24T15:19:19.692Z,1.70
2018-09-24T15:24:28.390Z,1.30
2018-09-24T15:29:36.840Z,2.87
2018-09-24T15:34:45.500Z,1.73
2018-09-24T15:39:54.537Z,1.77
2018-09-24T15:45:03.416Z,1.40
2018-09-24T15:50:12.560Z,2.07
2018-09-24T15:55:21.075Z,2.13
2018-09-24T16:00:29.865Z,1.83
2018-09-24T16:05:38.742Z,2.20
2018-09-24T16:10:48.386Z,2.07
2018-09-24T16:15:57.381Z,1.63
2018-09-24T16:21:07.017Z,1.70
2018-09-24T16:26:15.703Z,2.23
2018-09-24T16:31:24.903Z,1.60
2018-09-24T16:36:33.745Z,1.80
2018-09-24T16:41:43.262Z,1.93
2018-09-24T16:46:52.286Z,1.70
2018-09-24T16:52:01.124Z,1.63
2018-09-24T16:57:09.755Z,1.90
2018-09-24T17:02:18.644Z,1.90
2018-09-24T17:07:27.462Z,1.67
2018-09-24T17:12:36.363Z,1.70
2018-09-24T17:17:45.245Z,1.60
2018-09-24T17:22:53.988Z,1.80
2018-09-24T17:28:02.665Z,1.60
2018-09-24T17:33:11.608Z,1.60
2018-09-24T17:38:20.372Z,2.07
2018-09-24T17:43:29.140Z,1.50
2018-09-24T17:48:37.758Z,1.50
2018-09-24T17:53:46.538Z,1.77
2018-09-24T17:58:55.571Z,1.97
2018-09-24T18:04:11.078Z,1.60
2018-09-24T18:09:19.889Z,2.40
2018-09-24T18:14:28.638Z,2.20
2018-09-24T18:19:37.433Z,3.30
2018-09-24T18:24:46.346Z,3.20
2018-09-24T18:29:54.956Z,2.03
2018-09-24T18:35:03.682Z,2.30
2018-09-24T18:40:12.900Z,2.50
2018-09-24T18:45:22.142Z,3.20
2018-09-24T18:50:30.841Z,3.87
2018-09-24T18:55:39.562Z,3.10
2018-09-24T19:00:48.305Z,3.00
2018-09-24T19:05:56.976Z,2.63
2018-09-24T19:11:06.216Z,3.20
2018-09-24T19:16:14.845Z,3.23
2018-09-24T19:21:24.234Z,3.13
2018-09-24T19:26:33.559Z,3.10
2018-09-24T19:31:42.345Z,2.70
2018-09-24T19:36:51.122Z,3.93
2018-09-24T19:42:00.136Z,3.50
2018-09-24T19:47:15.410Z,3.13
2018-09-24T19:52:24.254Z,2.90
2018-09-24T19:57:32.931Z,2.77
2018-09-24T20:02:42.033Z,2.90
2018-09-24T20:07:51.212Z,2.50
2018-09-24T20:12:59.924Z,2.63
2018-09-24T20:18:09.382Z,3.10
2018-09-24T20:23:18.422Z,2.33
2018-09-24T20:28:27.098Z,2.90
2018-09-24T20:33:35.757Z,3.43
2018-09-24T20:38:44.756Z,2.97
2018-09-24T20:43:53.665Z,2.70
2018-09-24T20:49:03.094Z,2.97
2018-09-24T20:54:12.377Z,2.50
2018-09-24T20:59:20.983Z,2.77
2018-09-24T21:04:29.618Z,3.60
2018-09-24T21:09:38.349Z,4.07
2018-09-24T21:14:47.200Z,3.70
2018-09-24T21:19:56.078Z,2.90
2018-09-24T21:25:04.732Z,2.73
2018-09-24T21:30:13.338Z,2.93
2018-09-24T21:35:22.210Z,2.80
2018-09-24T21:40:31.314Z,2.50
2018-09-24T21:45:40.354Z,2.60
2018-09-24T21:50:48.940Z,2.60
2018-09-24T21:55:57.599Z,3.00
2018-09-24T22:01:06.351Z,2.90
2018-09-24T22:06:15.039Z,2.87
2018-09-24T22:11:23.646Z,2.40
2018-09-24T22:16:32.678Z,2.70
2018-09-24T22:21:41.453Z,3.20
2018-09-24T22:26:50.751Z,2.70
2018-09-24T22:31:59.846Z,3.00
2018-09-24T22:37:08.578Z,2.80
2018-09-24T22:42:17.602Z,2.37
2018-09-24T22:47:26.173Z,3.03
2018-09-24T22:52:34.704Z,2.40
2018-09-24T22:57:43.937Z,2.60
2018-09-24T23:02:53.197Z,2.60
2018-09-24T23:08:01.814Z,2.30
2018-09-24T23:13:10.409Z,2.70
2018-09-24T23:18:19.148Z,2.40
2018-09-24T23:23:27.887Z,2.50
2018-09-24T23:28:36.521Z,2.10
2018-09-24T23:33:45.322Z,2.40
2018-09-24T23:38:53.893Z,2.23
2018-09-24T23:44:02.583Z,2.10
2018-09-24T23:49:11.319Z,2.40
2018-09-24T23:54:19.952Z,2.20
2018-09-24T23:59:28.519Z,2.77
